sensor_id;sensor_type;location;lat;lon;timestamp;pressure;altitude;pressure_sealevel;temperature;humidity
60719;BME280;46567;51.660;5.824;2023-06-19T00:02:22;128060.0;;;190.6;61.5
60719;BME280;46567;51.660;5.824;2023-06-19T00:07:22;128060.0;;;190.6;61.0
60719;BME280;46567;51.660;5.824;2023-06-19T00:12:22;128060.0;;;190.6;61.5
60719;BME280;46567;51.660;5.824;2023-06-19T00:17:22;128060.0;;;190.6;61.5
60719;BME280;46567;51.660;5.824;2023-06-19T00:22:22;128040.0;;;190.6;61.0
60719;BME280;46567;51.660;5.824;2023-06-19T00:27:22;128020.0;;;190.6;61.5
60719;BME280;46567;51.660;5.824;2023-06-19T00:32:22;128030.0;;;190.6;61.5
60719;BME280;46567;51.660;5.824;2023-06-19T00:37:22;128030.0;;;190.6;61.5
60719;BME280;46567;51.660;5.824;2023-06-19T00:42:22;128030.0;;;190.6;61.0
60719;BME280;46567;51.660;5.824;2023-06-19T00:47:22;128030.0;;;190.6;61.0
60719;BME280;46567;51.660;5.824;2023-06-19T00:52:22;128030.0;;;190.6;60.5
60719;BME280;46567;51.660;5.824;2023-06-19T00:57:22;128030.0;;;190.6;60.5
60719;BME280;46567;51.660;5.824;2023-06-19T01:02:22;128030.0;;;190.6;60.5
60719;BME280;46567;51.660;5.824;2023-06-19T01:07:29;128020.0;;;190.6;60.5
60719;BME280;46567;51.660;5.824;2023-06-19T01:12:37;128040.0;;;190.6;60.5
60719;BME280;46567;51.660;5.824;2023-06-19T01:17:23;128050.0;;;190.6;60.5
60719;BME280;46567;51.660;5.824;2023-06-19T01:22:23;128070.0;;;190.6;60.5
60719;BME280;46567;51.660;5.824;2023-06-19T01:27:24;128090.0;;;190.6;60.5
60719;BME280;46567;51.660;5.824;2023-06-19T01:32:31;128100.0;;;190.6;60.5
60719;BME280;46567;51.660;5.824;2023-06-19T01:37:23;128100.0;;;190.6;60.5
60719;BME280;46567;51.660;5.824;2023-06-19T01:42:23;128120.0;;;190.6;60.5
60719;BME280;46567;51.660;5.824;2023-06-19T01:47:22;128140.0;;;190.6;61.5
60719;BME280;46567;51.660;5.824;2023-06-19T01:52:23;128170.0;;;190.6;62.0
60719;BME280;46567;51.660;5.824;2023-06-19T01:57:22;128200.0;;;190.6;62.0
60719;BME280;46567;51.660;5.824;2023-06-19T02:02:22;128230.0;;;190.6;62.5
60719;BME280;46567;51.660;5.824;2023-06-19T02:07:22;128250.0;;;190.6;63.0
60719;BME280;46567;51.660;5.824;2023-06-19T02:12:23;128270.0;;;190.6;63.5
60719;BME280;46567;51.660;5.824;2023-06-19T02:17:22;128310.0;;;190.6;64.0
60719;BME280;46567;51.660;5.824;2023-06-19T02:22:23;128350.0;;;190.6;65.0
60719;BME280;46567;51.660;5.824;2023-06-19T02:27:22;128390.0;;;190.6;65.5
60719;BME280;46567;51.660;5.824;2023-06-19T02:32:23;128430.0;;;190.6;67.0
60719;BME280;46567;51.660;5.824;2023-06-19T02:37:22;128470.0;;;190.6;68.0
60719;BME280;46567;51.660;5.824;2023-06-19T02:42:22;128510.0;;;190.6;68.5
60719;BME280;46567;51.660;5.824;2023-06-19T02:47:22;128530.0;;;190.6;69.0
60719;BME280;46567;51.660;5.824;2023-06-19T02:52:22;128530.0;;;190.6;69.5
60719;BME280;46567;51.660;5.824;2023-06-19T02:57:22;128540.0;;;190.6;70.0
60719;BME280;46567;51.660;5.824;2023-06-19T03:02:22;128570.0;;;190.6;70.5
60719;BME280;46567;51.660;5.824;2023-06-19T03:07:22;128590.0;;;190.6;71.5
60719;BME280;46567;51.660;5.824;2023-06-19T03:12:22;128590.0;;;190.6;72.0
60719;BME280;46567;51.660;5.824;2023-06-19T03:17:22;128610.0;;;190.6;72.5
60719;BME280;46567;51.660;5.824;2023-06-19T03:22:22;128630.0;;;190.6;73.0
60719;BME280;46567;51.660;5.824;2023-06-19T03:27:23;128650.0;;;190.6;73.0
60719;BME280;46567;51.660;5.824;2023-06-19T03:32:22;128660.0;;;190.6;73.5
60719;BME280;46567;51.660;5.824;2023-06-19T03:37:22;128670.0;;;190.6;74.0
60719;BME280;46567;51.660;5.824;2023-06-19T03:42:22;128680.0;;;190.6;74.0
60719;BME280;46567;51.660;5.824;2023-06-19T03:47:22;128710.0;;;190.6;74.5
60719;BME280;46567;51.660;5.824;2023-06-19T03:52:22;128710.0;;;190.6;75.0
60719;BME280;46567;51.660;5.824;2023-06-19T03:57:22;128720.0;;;190.6;75.5
60719;BME280;46567;51.660;5.824;2023-06-19T04:02:23;128750.0;;;190.6;76.0
60719;BME280;46567;51.660;5.824;2023-06-19T04:07:22;128770.0;;;190.6;76.0
60719;BME280;46567;51.660;5.824;2023-06-19T04:12:23;128770.0;;;190.6;76.5
60719;BME280;46567;51.660;5.824;2023-06-19T04:17:23;128770.0;;;190.6;77.0
60719;BME280;46567;51.660;5.824;2023-06-19T04:22:22;128760.0;;;190.6;77.5
60719;BME280;46567;51.660;5.824;2023-06-19T04:27:22;128750.0;;;190.6;78.0
60719;BME280;46567;51.660;5.824;2023-06-19T04:32:22;128740.0;;;190.6;78.0
60719;BME280;46567;51.660;5.824;2023-06-19T04:37:23;128740.0;;;190.6;78.5
60719;BME280;46567;51.660;5.824;2023-06-19T04:42:23;128740.0;;;190.6;78.5
60719;BME280;46567;51.660;5.824;2023-06-19T04:47:23;128750.0;;;190.6;79.0
60719;BME280;46567;51.660;5.824;2023-06-19T04:52:22;128750.0;;;190.6;79.5
60719;BME280;46567;51.660;5.824;2023-06-19T04:57:22;128740.0;;;190.6;80.0
60719;BME280;46567;51.660;5.824;2023-06-19T05:02:22;128710.0;;;190.6;80.0
60719;BME280;46567;51.660;5.824;2023-06-19T05:07:22;128710.0;;;190.6;80.0
60719;BME280;46567;51.660;5.824;2023-06-19T05:12:22;128700.0;;;190.6;80.5
60719;BME280;46567;51.660;5.824;2023-06-19T05:17:23;128710.0;;;190.6;80.5
60719;BME280;46567;51.660;5.824;2023-06-19T05:22:23;128710.0;;;190.6;81.0
60719;BME280;46567;51.660;5.824;2023-06-19T05:27:22;128710.0;;;190.6;81.0
60719;BME280;46567;51.660;5.824;2023-06-19T05:32:23;128700.0;;;190.6;81.0
60719;BME280;46567;51.660;5.824;2023-06-19T05:37:22;128700.0;;;190.6;81.5
60719;BME280;46567;51.660;5.824;2023-06-19T05:42:22;128700.0;;;190.6;81.5
60719;BME280;46567;51.660;5.824;2023-06-19T05:47:23;128690.0;;;190.6;81.5
60719;BME280;46567;51.660;5.824;2023-06-19T05:52:23;128680.0;;;190.6;81.5
60719;BME280;46567;51.660;5.824;2023-06-19T05:57:22;128670.0;;;190.6;81.5
60719;BME280;46567;51.660;5.824;2023-06-19T06:02:22;128660.0;;;190.6;81.5
60719;BME280;46567;51.660;5.824;2023-06-19T06:07:23;128650.0;;;190.6;81.5
60719;BME280;46567;51.660;5.824;2023-06-19T06:12:23;128630.0;;;190.6;81.5
60719;BME280;46567;51.660;5.824;2023-06-19T06:17:22;128610.0;;;190.6;81.5
60719;BME280;46567;51.660;5.824;2023-06-19T06:22:23;128600.0;;;190.6;81.0
60719;BME280;46567;51.660;5.824;2023-06-19T06:27:23;128590.0;;;190.6;81.0
60719;BME280;46567;51.660;5.824;2023-06-19T06:32:22;128550.0;;;190.6;80.5
60719;BME280;46567;51.660;5.824;2023-06-19T06:37:23;128520.0;;;190.6;80.0
60719;BME280;46567;51.660;5.824;2023-06-19T06:42:23;128500.0;;;190.6;79.0
60719;BME280;46567;51.660;5.824;2023-06-19T06:47:23;128480.0;;;190.6;79.0
60719;BME280;46567;51.660;5.824;2023-06-19T06:52:23;128430.0;;;190.6;77.5
60719;BME280;46567;51.660;5.824;2023-06-19T06:57:22;128390.0;;;190.6;77.0
60719;BME280;46567;51.660;5.824;2023-06-19T07:02:23;128330.0;;;190.6;75.5
60719;BME280;46567;51.660;5.824;2023-06-19T07:07:23;128310.0;;;190.6;74.0
60719;BME280;46567;51.660;5.824;2023-06-19T07:12:23;128250.0;;;190.6;73.5
60719;BME280;46567;51.660;5.824;2023-06-19T07:17:23;128230.0;;;190.6;72.5
60719;BME280;46567;51.660;5.824;2023-06-19T07:22:23;128250.0;;;190.6;72.0
60719;BME280;46567;51.660;5.824;2023-06-19T07:27:23;128270.0;;;190.6;70.5
60719;BME280;46567;51.660;5.824;2023-06-19T07:32:22;128240.0;;;190.6;69.0
60719;BME280;46567;51.660;5.824;2023-06-19T07:37:23;128220.0;;;190.6;68.5
60719;BME280;46567;51.660;5.824;2023-06-19T07:42:23;128180.0;;;190.6;68.0
60719;BME280;46567;51.660;5.824;2023-06-19T07:47:23;128120.0;;;190.6;66.0
60719;BME280;46567;51.660;5.824;2023-06-19T07:52:23;128100.0;;;190.6;65.0
60719;BME280;46567;51.660;5.824;2023-06-19T07:57:25;128070.0;;;190.6;64.5
60719;BME280;46567;51.660;5.824;2023-06-19T08:02:23;128010.0;;;190.6;63.5
60719;BME280;46567;51.660;5.824;2023-06-19T08:07:23;128000.0;;;190.6;62.5
60719;BME280;46567;51.660;5.824;2023-06-19T08:12:23;128030.0;;;190.6;61.5
60719;BME280;46567;51.660;5.824;2023-06-19T08:17:23;128060.0;;;190.6;61.5
60719;BME280;46567;51.660;5.824;2023-06-19T08:22:22;128080.0;;;190.6;61.5
60719;BME280;46567;51.660;5.824;2023-06-19T08:27:23;128050.0;;;190.6;60.5
60719;BME280;46567;51.660;5.824;2023-06-19T08:32:23;127990.0;;;190.6;59.5
60719;BME280;46567;51.660;5.824;2023-06-19T08:37:23;127960.0;;;190.6;58.5
60719;BME280;46567;51.660;5.824;2023-06-19T08:42:23;127950.0;;;190.6;59.0
60719;BME280;46567;51.660;5.824;2023-06-19T08:47:28;127950.0;;;190.6;58.5
60719;BME280;46567;51.660;5.824;2023-06-19T08:52:23;127940.0;;;190.6;58.5
60719;BME280;46567;51.660;5.824;2023-06-19T08:57:32;127960.0;;;190.6;58.0
60719;BME280;46567;51.660;5.824;2023-06-19T09:02:23;127960.0;;;190.6;57.5
60719;BME280;46567;51.660;5.824;2023-06-19T09:07:23;127960.0;;;190.6;57.5
60719;BME280;46567;51.660;5.824;2023-06-19T09:12:23;127970.0;;;190.6;57.5
60719;BME280;46567;51.660;5.824;2023-06-19T09:17:23;127940.0;;;190.6;57.0
60719;BME280;46567;51.660;5.824;2023-06-19T09:22:23;127920.0;;;190.6;56.5
60719;BME280;46567;51.660;5.824;2023-06-19T09:27:23;127910.0;;;190.6;56.5
60719;BME280;46567;51.660;5.824;2023-06-19T09:32:24;127890.0;;;190.6;56.5
60719;BME280;46567;51.660;5.824;2023-06-19T09:37:24;127900.0;;;190.6;54.5
60719;BME280;46567;51.660;5.824;2023-06-19T09:42:29;127910.0;;;190.6;54.5
60719;BME280;46567;51.660;5.824;2023-06-19T09:47:25;127910.0;;;190.6;54.5
60719;BME280;46567;51.660;5.824;2023-06-19T09:52:23;127850.0;;;190.6;54.5
60719;BME280;46567;51.660;5.824;2023-06-19T09:57:23;127820.0;;;190.6;55.0
60719;BME280;46567;51.660;5.824;2023-06-19T10:02:25;127760.0;;;190.6;53.5
60719;BME280;46567;51.660;5.824;2023-06-19T10:07:24;127740.0;;;190.6;52.5
60719;BME280;46567;51.660;5.824;2023-06-19T10:12:33;127720.0;;;190.6;52.5
60719;BME280;46567;51.660;5.824;2023-06-19T10:17:23;127690.0;;;190.6;52.0
60719;BME280;46567;51.660;5.824;2023-06-19T10:22:23;127700.0;;;190.6;51.5
60719;BME280;46567;51.660;5.824;2023-06-19T10:27:23;127700.0;;;190.6;51.0
60719;BME280;46567;51.660;5.824;2023-06-19T10:32:23;127680.0;;;190.6;50.5
60719;BME280;46567;51.660;5.824;2023-06-19T10:37:32;127640.0;;;190.6;50.0
60719;BME280;46567;51.660;5.824;2023-06-19T10:42:23;127580.0;;;190.6;49.5
60719;BME280;46567;51.660;5.824;2023-06-19T10:47:23;127560.0;;;190.6;47.0
60719;BME280;46567;51.660;5.824;2023-06-19T10:52:23;127530.0;;;190.6;47.5
60719;BME280;46567;51.660;5.824;2023-06-19T10:57:27;127490.0;;;190.6;47.0
60719;BME280;46567;51.660;5.824;2023-06-19T11:02:23;127460.0;;;190.6;46.0
60719;BME280;46567;51.660;5.824;2023-06-19T11:07:23;127440.0;;;190.6;44.5
60719;BME280;46567;51.660;5.824;2023-06-19T11:12:23;127480.0;;;190.6;44.0
60719;BME280;46567;51.660;5.824;2023-06-19T11:17:23;127510.0;;;190.6;44.0
60719;BME280;46567;51.660;5.824;2023-06-19T11:22:33;127500.0;;;190.6;44.5
60719;BME280;46567;51.660;5.824;2023-06-19T11:27:23;127510.0;;;190.6;43.0
60719;BME280;46567;51.660;5.824;2023-06-19T11:32:23;127530.0;;;190.6;43.0
60719;BME280;46567;51.660;5.824;2023-06-19T11:37:23;127500.0;;;190.6;43.0
60719;BME280;46567;51.660;5.824;2023-06-19T11:42:23;127500.0;;;190.6;43.0
60719;BME280;46567;51.660;5.824;2023-06-19T11:47:23;127490.0;;;190.6;43.5
60719;BME280;46567;51.660;5.824;2023-06-19T11:52:23;127450.0;;;190.6;42.0
60719;BME280;46567;51.660;5.824;2023-06-19T11:57:23;127440.0;;;190.6;41.5
60719;BME280;46567;51.660;5.824;2023-06-19T12:02:23;127410.0;;;190.6;40.0
60719;BME280;46567;51.660;5.824;2023-06-19T12:07:23;127410.0;;;190.6;40.0
60719;BME280;46567;51.660;5.824;2023-06-19T12:12:23;127370.0;;;190.6;40.5
60719;BME280;46567;51.660;5.824;2023-06-19T12:17:23;127310.0;;;190.6;39.0
60719;BME280;46567;51.660;5.824;2023-06-19T12:22:23;127280.0;;;190.6;37.0
60719;BME280;46567;51.660;5.824;2023-06-19T12:27:23;127260.0;;;190.6;36.5
60719;BME280;46567;51.660;5.824;2023-06-19T12:32:23;127230.0;;;190.6;37.0
60719;BME280;46567;51.660;5.824;2023-06-19T12:37:23;127240.0;;;190.6;37.5
60719;BME280;46567;51.660;5.824;2023-06-19T12:42:23;127200.0;;;190.6;36.5
60719;BME280;46567;51.660;5.824;2023-06-19T12:47:23;127210.0;;;190.6;35.5
60719;BME280;46567;51.660;5.824;2023-06-19T12:52:23;127220.0;;;190.6;35.0
60719;BME280;46567;51.660;5.824;2023-06-19T12:57:23;127200.0;;;190.6;35.5
60719;BME280;46567;51.660;5.824;2023-06-19T13:02:23;127160.0;;;190.6;35.0
60719;BME280;46567;51.660;5.824;2023-06-19T13:07:23;127150.0;;;190.6;35.0
60719;BME280;46567;51.660;5.824;2023-06-19T13:12:23;127090.0;;;190.6;34.0
60719;BME280;46567;51.660;5.824;2023-06-19T13:17:23;127060.0;;;190.6;34.5
60719;BME280;46567;51.660;5.824;2023-06-19T13:22:23;127010.0;;;190.6;34.0
60719;BME280;46567;51.660;5.824;2023-06-19T13:27:23;126990.0;;;190.6;33.0
60719;BME280;46567;51.660;5.824;2023-06-19T13:32:23;127010.0;;;190.6;32.5
60719;BME280;46567;51.660;5.824;2023-06-19T13:37:23;126990.0;;;190.6;32.5
60719;BME280;46567;51.660;5.824;2023-06-19T13:42:23;126960.0;;;190.6;31.0
60719;BME280;46567;51.660;5.824;2023-06-19T13:47:23;126950.0;;;190.6;31.5
60719;BME280;46567;51.660;5.824;2023-06-19T13:52:23;126930.0;;;190.6;32.0
60719;BME280;46567;51.660;5.824;2023-06-19T13:57:23;126920.0;;;190.6;31.5
60719;BME280;46567;51.660;5.824;2023-06-19T14:02:23;126890.0;;;190.6;30.5
60719;BME280;46567;51.660;5.824;2023-06-19T14:07:23;126890.0;;;190.6;30.0
60719;BME280;46567;51.660;5.824;2023-06-19T14:12:23;126910.0;;;190.6;30.0
60719;BME280;46567;51.660;5.824;2023-06-19T14:17:23;126940.0;;;190.6;30.0
60719;BME280;46567;51.660;5.824;2023-06-19T14:22:23;126940.0;;;190.6;31.0
60719;BME280;46567;51.660;5.824;2023-06-19T14:27:23;126900.0;;;190.6;31.0
60719;BME280;46567;51.660;5.824;2023-06-19T14:32:23;126850.0;;;190.6;29.5
60719;BME280;46567;51.660;5.824;2023-06-19T14:37:23;126800.0;;;190.6;29.5
60719;BME280;46567;51.660;5.824;2023-06-19T14:42:23;126720.0;;;190.6;28.5
60719;BME280;46567;51.660;5.824;2023-06-19T14:47:23;126710.0;;;190.6;26.5
60719;BME280;46567;51.660;5.824;2023-06-19T14:52:23;126710.0;;;190.6;28.0
60719;BME280;46567;51.660;5.824;2023-06-19T14:57:24;126700.0;;;190.6;27.5
60719;BME280;46567;51.660;5.824;2023-06-19T15:02:23;126660.0;;;190.6;26.5
60719;BME280;46567;51.660;5.824;2023-06-19T15:07:23;126640.0;;;190.6;27.5
60719;BME280;46567;51.660;5.824;2023-06-19T15:12:23;126600.0;;;190.6;27.0
60719;BME280;46567;51.660;5.824;2023-06-19T15:17:23;126580.0;;;190.6;26.5
60719;BME280;46567;51.660;5.824;2023-06-19T15:22:23;126590.0;;;190.6;25.5
60719;BME280;46567;51.660;5.824;2023-06-19T15:27:23;126580.0;;;190.6;25.5
60719;BME280;46567;51.660;5.824;2023-06-19T15:32:23;126570.0;;;190.6;25.5
60719;BME280;46567;51.660;5.824;2023-06-19T15:37:23;126530.0;;;190.6;25.0
60719;BME280;46567;51.660;5.824;2023-06-19T15:42:23;126520.0;;;190.6;25.5
60719;BME280;46567;51.660;5.824;2023-06-19T15:47:23;126510.0;;;190.6;25.5
60719;BME280;46567;51.660;5.824;2023-06-19T15:52:23;126560.0;;;190.6;25.5
60719;BME280;46567;51.660;5.824;2023-06-19T15:57:23;126660.0;;;190.6;24.5
60719;BME280;46567;51.660;5.824;2023-06-19T16:02:23;126720.0;;;190.6;25.0
60719;BME280;46567;51.660;5.824;2023-06-19T16:07:23;126750.0;;;190.6;27.0
60719;BME280;46567;51.660;5.824;2023-06-19T16:12:23;126740.0;;;190.6;27.0
60719;BME280;46567;51.660;5.824;2023-06-19T16:17:23;126720.0;;;190.6;26.0
60719;BME280;46567;51.660;5.824;2023-06-19T16:22:23;126680.0;;;190.6;26.0
60719;BME280;46567;51.660;5.824;2023-06-19T16:27:23;126650.0;;;190.6;26.0
60719;BME280;46567;51.660;5.824;2023-06-19T16:32:23;126630.0;;;190.6;26.0
60719;BME280;46567;51.660;5.824;2023-06-19T16:37:23;126550.0;;;190.6;25.0
60719;BME280;46567;51.660;5.824;2023-06-19T16:42:24;126500.0;;;190.6;25.0
60719;BME280;46567;51.660;5.824;2023-06-19T16:47:23;126490.0;;;190.6;24.5
60719;BME280;46567;51.660;5.824;2023-06-19T16:52:23;126480.0;;;190.6;24.5
60719;BME280;46567;51.660;5.824;2023-06-19T16:57:23;126460.0;;;190.6;22.5
60719;BME280;46567;51.660;5.824;2023-06-19T17:02:23;126460.0;;;190.6;23.0
60719;BME280;46567;51.660;5.824;2023-06-19T17:07:23;126460.0;;;190.6;22.5
60719;BME280;46567;51.660;5.824;2023-06-19T17:12:23;126430.0;;;190.6;22.5
60719;BME280;46567;51.660;5.824;2023-06-19T17:17:23;126440.0;;;190.6;22.5
60719;BME280;46567;51.660;5.824;2023-06-19T17:22:23;126440.0;;;190.6;22.0
60719;BME280;46567;51.660;5.824;2023-06-19T17:27:23;126450.0;;;190.6;22.5
60719;BME280;46567;51.660;5.824;2023-06-19T17:32:23;126460.0;;;190.6;21.5
60719;BME280;46567;51.660;5.824;2023-06-19T17:37:23;126480.0;;;190.6;22.5
60719;BME280;46567;51.660;5.824;2023-06-19T17:42:23;126470.0;;;190.6;23.0
60719;BME280;46567;51.660;5.824;2023-06-19T17:47:23;126470.0;;;190.6;22.0
60719;BME280;46567;51.660;5.824;2023-06-19T17:52:23;126550.0;;;190.6;24.5
60719;BME280;46567;51.660;5.824;2023-06-19T17:57:23;126720.0;;;190.6;26.0
60719;BME280;46567;51.660;5.824;2023-06-19T18:02:23;126860.0;;;190.6;27.5
60719;BME280;46567;51.660;5.824;2023-06-19T18:07:23;127000.0;;;190.6;29.0
60719;BME280;46567;51.660;5.824;2023-06-19T18:12:23;127100.0;;;190.6;30.0
60719;BME280;46567;51.660;5.824;2023-06-19T18:17:23;127190.0;;;190.6;31.0
60719;BME280;46567;51.660;5.824;2023-06-19T18:22:23;127230.0;;;190.6;32.5
60719;BME280;46567;51.660;5.824;2023-06-19T18:27:23;127280.0;;;190.6;33.0
60719;BME280;46567;51.660;5.824;2023-06-19T18:32:23;127340.0;;;190.6;33.5
60719;BME280;46567;51.660;5.824;2023-06-19T18:37:23;127370.0;;;190.6;34.5
60719;BME280;46567;51.660;5.824;2023-06-19T18:42:23;127420.0;;;190.6;35.0
60719;BME280;46567;51.660;5.824;2023-06-19T18:47:23;127450.0;;;190.6;35.5
60719;BME280;46567;51.660;5.824;2023-06-19T18:52:23;127480.0;;;190.6;36.0
60719;BME280;46567;51.660;5.824;2023-06-19T18:57:23;127540.0;;;190.6;37.0
60719;BME280;46567;51.660;5.824;2023-06-19T19:02:23;127580.0;;;190.6;37.5
60719;BME280;46567;51.660;5.824;2023-06-19T19:07:23;127600.0;;;190.6;38.0
60719;BME280;46567;51.660;5.824;2023-06-19T19:12:23;127650.0;;;190.6;38.5
60719;BME280;46567;51.660;5.824;2023-06-19T19:17:23;127690.0;;;190.6;39.5
60719;BME280;46567;51.660;5.824;2023-06-19T19:22:23;127760.0;;;190.6;40.5
60719;BME280;46567;51.660;5.824;2023-06-19T19:27:23;127810.0;;;190.6;41.0
60719;BME280;46567;51.660;5.824;2023-06-19T19:32:23;127880.0;;;190.6;42.5
60719;BME280;46567;51.660;5.824;2023-06-19T19:37:23;127940.0;;;190.6;43.0
60719;BME280;46567;51.660;5.824;2023-06-19T19:42:23;127970.0;;;190.6;43.5
60719;BME280;46567;51.660;5.824;2023-06-19T19:47:23;127990.0;;;190.6;44.0
60719;BME280;46567;51.660;5.824;2023-06-19T19:52:23;128040.0;;;190.6;44.5
60719;BME280;46567;51.660;5.824;2023-06-19T19:57:23;128090.0;;;190.6;45.0
60719;BME280;46567;51.660;5.824;2023-06-19T20:02:23;128120.0;;;190.6;45.5
60719;BME280;46567;51.660;5.824;2023-06-19T20:07:23;128150.0;;;190.6;46.0
60719;BME280;46567;51.660;5.824;2023-06-19T20:12:23;128190.0;;;190.6;47.0
60719;BME280;46567;51.660;5.824;2023-06-19T20:17:23;128210.0;;;190.6;47.5
60719;BME280;46567;51.660;5.824;2023-06-19T20:22:23;128220.0;;;190.6;47.5
60719;BME280;46567;51.660;5.824;2023-06-19T20:27:23;128240.0;;;190.6;48.0
60719;BME280;46567;51.660;5.824;2023-06-19T20:32:23;128260.0;;;190.6;48.0
60719;BME280;46567;51.660;5.824;2023-06-19T20:37:23;128270.0;;;190.6;48.5
60719;BME280;46567;51.660;5.824;2023-06-19T20:42:23;128280.0;;;190.6;49.0
60719;BME280;46567;51.660;5.824;2023-06-19T20:47:23;128300.0;;;190.6;48.5
60719;BME280;46567;51.660;5.824;2023-06-19T20:52:23;128320.0;;;190.6;49.0
60719;BME280;46567;51.660;5.824;2023-06-19T20:57:23;128330.0;;;190.6;49.5
60719;BME280;46567;51.660;5.824;2023-06-19T21:02:23;128340.0;;;190.6;49.5
60719;BME280;46567;51.660;5.824;2023-06-19T21:07:23;128360.0;;;190.6;50.0
60719;BME280;46567;51.660;5.824;2023-06-19T21:17:23;128360.0;;;190.6;50.5
60719;BME280;46567;51.660;5.824;2023-06-19T21:27:23;128380.0;;;190.6;51.0
60719;BME280;46567;51.660;5.824;2023-06-19T21:32:23;128390.0;;;190.6;51.0
60719;BME280;46567;51.660;5.824;2023-06-19T21:37:23;128400.0;;;190.6;51.5
60719;BME280;46567;51.660;5.824;2023-06-19T21:42:23;128400.0;;;190.6;51.5
60719;BME280;46567;51.660;5.824;2023-06-19T21:47:23;128400.0;;;190.6;52.0
60719;BME280;46567;51.660;5.824;2023-06-19T21:52:23;128400.0;;;190.6;52.0
60719;BME280;46567;51.660;5.824;2023-06-19T21:57:23;128400.0;;;190.6;52.5
60719;BME280;46567;51.660;5.824;2023-06-19T22:02:23;128420.0;;;190.6;53.0
60719;BME280;46567;51.660;5.824;2023-06-19T22:07:23;128440.0;;;190.6;53.5
60719;BME280;46567;51.660;5.824;2023-06-19T22:12:23;128430.0;;;190.6;54.0
60719;BME280;46567;51.660;5.824;2023-06-19T22:17:23;128450.0;;;190.6;55.0
60719;BME280;46567;51.660;5.824;2023-06-19T22:22:23;128460.0;;;190.6;55.5
60719;BME280;46567;51.660;5.824;2023-06-19T22:27:23;128470.0;;;190.6;56.0
60719;BME280;46567;51.660;5.824;2023-06-19T22:32:23;128470.0;;;190.6;57.0
60719;BME280;46567;51.660;5.824;2023-06-19T22:37:23;128470.0;;;190.6;57.0
60719;BME280;46567;51.660;5.824;2023-06-19T22:42:23;128500.0;;;190.6;58.0
60719;BME280;46567;51.660;5.824;2023-06-19T22:47:23;128500.0;;;190.6;58.5
60719;BME280;46567;51.660;5.824;2023-06-19T22:52:23;128520.0;;;190.6;59.5
60719;BME280;46567;51.660;5.824;2023-06-19T22:57:23;128510.0;;;190.6;59.5
60719;BME280;46567;51.660;5.824;2023-06-19T23:02:23;128530.0;;;190.6;59.5
60719;BME280;46567;51.660;5.824;2023-06-19T23:07:23;128530.0;;;190.6;59.5
60719;BME280;46567;51.660;5.824;2023-06-19T23:12:23;128530.0;;;190.6;60.0
60719;BME280;46567;51.660;5.824;2023-06-19T23:17:23;128550.0;;;190.6;60.0
60719;BME280;46567;51.660;5.824;2023-06-19T23:22:23;128560.0;;;190.6;60.5
60719;BME280;46567;51.660;5.824;2023-06-19T23:27:23;128560.0;;;190.6;60.5
60719;BME280;46567;51.660;5.824;2023-06-19T23:32:23;128570.0;;;190.6;61.0
60719;BME280;46567;51.660;5.824;2023-06-19T23:37:23;128570.0;;;190.6;61.5
60719;BME280;46567;51.660;5.824;2023-06-19T23:42:23;128570.0;;;190.6;62.0
60719;BME280;46567;51.660;5.824;2023-06-19T23:47:23;128580.0;;;190.6;62.0
60719;BME280;46567;51.660;5.824;2023-06-19T23:52:23;128570.0;;;190.6;62.0
60719;BME280;46567;51.660;5.824;2023-06-19T23:57:23;128590.0;;;190.6;62.5
